sensor_id;sensor_type;location;lat;lon;timestamp;P1;durP1;ratioP1;P2;durP2;ratioP2
24547;SDS011;12713;51.624;4.924;2023-04-01T00:00:51;10.57;;;6.15;;
24547;SDS011;12713;51.624;4.924;2023-04-01T00:03:17;12.77;;;6.22;;
24547;SDS011;12713;51.624;4.924;2023-04-01T00:05:44;10.63;;;6.57;;
24547;SDS011;12713;51.624;4.924;2023-04-01T00:08:10;12.15;;;6.45;;
24547;SDS011;12713;51.624;4.924;2023-04-01T00:10:36;9.00;;;6.93;;
24547;SDS011;12713;51.624;4.924;2023-04-01T00:13:03;12.27;;;7.60;;
24547;SDS011;12713;51.624;4.924;2023-04-01T00:15:29;17.33;;;8.52;;
24547;SDS011;12713;51.624;4.924;2023-04-01T00:17:55;12.13;;;7.13;;
24547;SDS011;12713;51.624;4.924;2023-04-01T00:20:21;12.88;;;7.80;;
24547;SDS011;12713;51.624;4.924;2023-04-01T00:22:47;11.23;;;7.82;;
24547;SDS011;12713;51.624;4.924;2023-04-01T00:25:14;12.90;;;8.32;;
24547;SDS011;12713;51.624;4.924;2023-04-01T00:27:40;13.43;;;8.13;;
24547;SDS011;12713;51.624;4.924;2023-04-01T00:30:06;13.70;;;7.95;;
24547;SDS011;12713;51.624;4.924;2023-04-01T00:32:33;12.75;;;5.93;;
24547;SDS011;12713;51.624;4.924;2023-04-01T00:34:59;9.55;;;4.57;;
24547;SDS011;12713;51.624;4.924;2023-04-01T00:37:25;8.52;;;5.13;;
24547;SDS011;12713;51.624;4.924;2023-04-01T00:39:52;11.18;;;5.13;;
24547;SDS011;12713;51.624;4.924;2023-04-01T00:42:18;11.52;;;4.35;;
24547;SDS011;12713;51.624;4.924;2023-04-01T00:44:45;7.72;;;3.42;;
24547;SDS011;12713;51.624;4.924;2023-04-01T00:47:11;7.78;;;3.13;;
24547;SDS011;12713;51.624;4.924;2023-04-01T00:49:39;9.55;;;3.42;;
24547;SDS011;12713;51.624;4.924;2023-04-01T00:52:07;8.15;;;3.50;;
24547;SDS011;12713;51.624;4.924;2023-04-01T00:54:33;4.38;;;2.70;;
24547;SDS011;12713;51.624;4.924;2023-04-01T00:57:02;7.47;;;3.00;;
24547;SDS011;12713;51.624;4.924;2023-04-01T00:59:33;8.02;;;2.78;;
24547;SDS011;12713;51.624;4.924;2023-04-01T01:02:01;7.53;;;3.28;;
24547;SDS011;12713;51.624;4.924;2023-04-01T01:04:29;5.22;;;2.80;;
24547;SDS011;12713;51.624;4.924;2023-04-01T01:07:05;9.20;;;3.35;;
24547;SDS011;12713;51.624;4.924;2023-04-01T01:09:56;7.07;;;3.70;;
24547;SDS011;12713;51.624;4.924;2023-04-01T01:22:34;9.07;;;3.95;;
24547;SDS011;12713;51.624;4.924;2023-04-01T01:27:31;9.68;;;3.17;;
24547;SDS011;12713;51.624;4.924;2023-04-01T01:29:59;6.07;;;3.00;;
24547;SDS011;12713;51.624;4.924;2023-04-01T01:37:38;8.25;;;3.22;;
24547;SDS011;12713;51.624;4.924;2023-04-01T01:40:06;7.85;;;3.60;;
24547;SDS011;12713;51.624;4.924;2023-04-01T01:42:33;9.07;;;4.03;;
24547;SDS011;12713;51.624;4.924;2023-04-01T01:45:01;10.25;;;4.38;;
24547;SDS011;12713;51.624;4.924;2023-04-01T01:47:28;9.02;;;3.78;;
24547;SDS011;12713;51.624;4.924;2023-04-01T01:49:55;10.90;;;4.07;;
24547;SDS011;12713;51.624;4.924;2023-04-01T01:52:21;9.35;;;4.32;;
24547;SDS011;12713;51.624;4.924;2023-04-01T01:54:48;17.20;;;4.65;;
24547;SDS011;12713;51.624;4.924;2023-04-01T01:57:15;11.65;;;4.68;;
24547;SDS011;12713;51.624;4.924;2023-04-01T01:59:42;16.35;;;5.00;;
24547;SDS011;12713;51.624;4.924;2023-04-01T02:02:08;14.10;;;4.53;;
24547;SDS011;12713;51.624;4.924;2023-04-01T02:04:36;15.00;;;3.90;;
24547;SDS011;12713;51.624;4.924;2023-04-01T02:07:04;9.63;;;3.20;;
24547;SDS011;12713;51.624;4.924;2023-04-01T02:09:31;9.35;;;3.33;;
24547;SDS011;12713;51.624;4.924;2023-04-01T02:12:00;10.35;;;2.67;;
24547;SDS011;12713;51.624;4.924;2023-04-01T02:14:38;16.02;;;3.55;;
24547;SDS011;12713;51.624;4.924;2023-04-01T02:17:09;6.82;;;2.47;;
24547;SDS011;12713;51.624;4.924;2023-04-01T02:19:40;4.40;;;2.15;;
24547;SDS011;12713;51.624;4.924;2023-04-01T02:22:10;6.25;;;2.42;;
24547;SDS011;12713;51.624;4.924;2023-04-01T02:24:37;9.82;;;2.95;;
24547;SDS011;12713;51.624;4.924;2023-04-01T02:27:04;5.90;;;2.58;;
24547;SDS011;12713;51.624;4.924;2023-04-01T02:29:30;7.60;;;3.00;;
24547;SDS011;12713;51.624;4.924;2023-04-01T02:31:57;5.93;;;2.85;;
24547;SDS011;12713;51.624;4.924;2023-04-01T02:34:24;9.77;;;2.60;;
24547;SDS011;12713;51.624;4.924;2023-04-01T02:36:50;6.55;;;3.35;;
24547;SDS011;12713;51.624;4.924;2023-04-01T02:39:17;8.05;;;3.17;;
24547;SDS011;12713;51.624;4.924;2023-04-01T02:41:44;6.55;;;3.72;;
24547;SDS011;12713;51.624;4.924;2023-04-01T02:44:11;10.15;;;3.85;;
24547;SDS011;12713;51.624;4.924;2023-04-01T02:46:38;11.02;;;4.30;;
24547;SDS011;12713;51.624;4.924;2023-04-01T02:49:04;7.35;;;4.25;;
24547;SDS011;12713;51.624;4.924;2023-04-01T02:51:30;8.60;;;4.38;;
24547;SDS011;12713;51.624;4.924;2023-04-01T02:53:56;8.85;;;4.60;;
24547;SDS011;12713;51.624;4.924;2023-04-01T02:56:23;6.45;;;4.25;;
24547;SDS011;12713;51.624;4.924;2023-04-01T02:58:49;7.60;;;4.82;;
24547;SDS011;12713;51.624;4.924;2023-04-01T03:01:15;7.35;;;4.75;;
24547;SDS011;12713;51.624;4.924;2023-04-01T03:03:41;7.90;;;5.47;;
24547;SDS011;12713;51.624;4.924;2023-04-01T03:06:08;11.20;;;5.57;;
24547;SDS011;12713;51.624;4.924;2023-04-01T03:08:34;8.80;;;5.57;;
24547;SDS011;12713;51.624;4.924;2023-04-01T03:11:00;11.38;;;5.93;;
24547;SDS011;12713;51.624;4.924;2023-04-01T03:13:26;7.70;;;5.60;;
24547;SDS011;12713;51.624;4.924;2023-04-01T03:15:52;11.52;;;5.85;;
24547;SDS011;12713;51.624;4.924;2023-04-01T03:18:18;12.20;;;6.65;;
24547;SDS011;12713;51.624;4.924;2023-04-01T03:20:45;13.45;;;6.22;;
24547;SDS011;12713;51.624;4.924;2023-04-01T03:23:11;11.55;;;5.80;;
24547;SDS011;12713;51.624;4.924;2023-04-01T03:25:37;12.93;;;6.13;;
24547;SDS011;12713;51.624;4.924;2023-04-01T03:28:03;12.00;;;6.38;;
24547;SDS011;12713;51.624;4.924;2023-04-01T03:30:29;12.00;;;6.43;;
24547;SDS011;12713;51.624;4.924;2023-04-01T03:32:56;10.65;;;6.20;;
24547;SDS011;12713;51.624;4.924;2023-04-01T03:35:22;13.82;;;7.45;;
24547;SDS011;12713;51.624;4.924;2023-04-01T03:37:50;12.45;;;6.53;;
24547;SDS011;12713;51.624;4.924;2023-04-01T03:40:16;14.15;;;7.10;;
24547;SDS011;12713;51.624;4.924;2023-04-01T03:42:42;12.57;;;7.03;;
24547;SDS011;12713;51.624;4.924;2023-04-01T03:45:08;16.67;;;7.30;;
24547;SDS011;12713;51.624;4.924;2023-04-01T03:47:34;15.63;;;7.10;;
24547;SDS011;12713;51.624;4.924;2023-04-01T03:50:00;13.82;;;6.78;;
24547;SDS011;12713;51.624;4.924;2023-04-01T03:52:27;14.40;;;6.68;;
24547;SDS011;12713;51.624;4.924;2023-04-01T03:54:53;12.45;;;5.95;;
24547;SDS011;12713;51.624;4.924;2023-04-01T03:57:19;10.15;;;5.80;;
24547;SDS011;12713;51.624;4.924;2023-04-01T03:59:45;13.38;;;5.43;;
24547;SDS011;12713;51.624;4.924;2023-04-01T04:02:11;11.38;;;5.20;;
24547;SDS011;12713;51.624;4.924;2023-04-01T04:04:37;13.93;;;5.32;;
24547;SDS011;12713;51.624;4.924;2023-04-01T04:07:03;12.10;;;5.55;;
24547;SDS011;12713;51.624;4.924;2023-04-01T04:09:32;11.27;;;5.60;;
24547;SDS011;12713;51.624;4.924;2023-04-01T04:11:58;13.98;;;6.55;;
24547;SDS011;12713;51.624;4.924;2023-04-01T04:14:24;15.25;;;6.30;;
24547;SDS011;12713;51.624;4.924;2023-04-01T04:16:50;10.70;;;6.53;;
24547;SDS011;12713;51.624;4.924;2023-04-01T04:19:17;12.60;;;5.93;;
24547;SDS011;12713;51.624;4.924;2023-04-01T04:21:43;9.65;;;6.50;;
24547;SDS011;12713;51.624;4.924;2023-04-01T04:24:09;14.60;;;6.40;;
24547;SDS011;12713;51.624;4.924;2023-04-01T04:26:35;13.25;;;7.18;;
24547;SDS011;12713;51.624;4.924;2023-04-01T04:29:01;13.80;;;6.60;;
24547;SDS011;12713;51.624;4.924;2023-04-01T04:31:28;12.32;;;6.95;;
24547;SDS011;12713;51.624;4.924;2023-04-01T04:33:54;11.68;;;7.00;;
24547;SDS011;12713;51.624;4.924;2023-04-01T04:36:20;8.07;;;5.95;;
24547;SDS011;12713;51.624;4.924;2023-04-01T04:38:46;11.32;;;6.40;;
24547;SDS011;12713;51.624;4.924;2023-04-01T04:41:16;11.82;;;6.53;;
24547;SDS011;12713;51.624;4.924;2023-04-01T04:43:47;9.77;;;6.05;;
24547;SDS011;12713;51.624;4.924;2023-04-01T04:46:13;7.88;;;6.03;;
24547;SDS011;12713;51.624;4.924;2023-04-01T04:48:39;10.23;;;6.38;;
24547;SDS011;12713;51.624;4.924;2023-04-01T04:51:06;13.30;;;6.88;;
24547;SDS011;12713;51.624;4.924;2023-04-01T04:53:32;11.68;;;6.88;;
24547;SDS011;12713;51.624;4.924;2023-04-01T04:55:58;10.40;;;6.35;;
24547;SDS011;12713;51.624;4.924;2023-04-01T04:58:24;13.55;;;7.15;;
24547;SDS011;12713;51.624;4.924;2023-04-01T05:00:51;11.18;;;7.68;;
24547;SDS011;12713;51.624;4.924;2023-04-01T05:03:17;12.55;;;8.73;;
24547;SDS011;12713;51.624;4.924;2023-04-01T05:05:52;15.38;;;9.68;;
24547;SDS011;12713;51.624;4.924;2023-04-01T05:08:19;16.83;;;10.25;;
24547;SDS011;12713;51.624;4.924;2023-04-01T05:10:45;19.77;;;11.40;;
24547;SDS011;12713;51.624;4.924;2023-04-01T05:13:11;18.10;;;10.90;;
24547;SDS011;12713;51.624;4.924;2023-04-01T05:15:37;24.70;;;13.40;;
24547;SDS011;12713;51.624;4.924;2023-04-01T05:18:04;22.48;;;13.00;;
24547;SDS011;12713;51.624;4.924;2023-04-01T05:20:30;23.27;;;13.63;;
24547;SDS011;12713;51.624;4.924;2023-04-01T05:22:56;29.00;;;14.25;;
24547;SDS011;12713;51.624;4.924;2023-04-01T05:25:22;29.75;;;16.42;;
24547;SDS011;12713;51.624;4.924;2023-04-01T05:27:48;38.75;;;17.63;;
24547;SDS011;12713;51.624;4.924;2023-04-01T05:30:14;33.28;;;16.38;;
24547;SDS011;12713;51.624;4.924;2023-04-01T05:32:40;34.60;;;18.30;;
24547;SDS011;12713;51.624;4.924;2023-04-01T05:35:07;33.67;;;19.17;;
24547;SDS011;12713;51.624;4.924;2023-04-01T05:37:33;39.08;;;20.65;;
24547;SDS011;12713;51.624;4.924;2023-04-01T05:40:00;32.38;;;18.90;;
24547;SDS011;12713;51.624;4.924;2023-04-01T05:42:26;38.22;;;21.45;;
24547;SDS011;12713;51.624;4.924;2023-04-01T05:44:52;41.50;;;21.75;;
24547;SDS011;12713;51.624;4.924;2023-04-01T05:47:18;43.00;;;21.58;;
24547;SDS011;12713;51.624;4.924;2023-04-01T05:49:44;39.97;;;21.48;;
24547;SDS011;12713;51.624;4.924;2023-04-01T05:52:10;41.92;;;22.92;;
24547;SDS011;12713;51.624;4.924;2023-04-01T05:54:36;43.15;;;22.75;;
24547;SDS011;12713;51.624;4.924;2023-04-01T05:57:02;40.40;;;21.20;;
24547;SDS011;12713;51.624;4.924;2023-04-01T05:59:28;45.70;;;22.20;;
24547;SDS011;12713;51.624;4.924;2023-04-01T06:01:56;34.53;;;20.15;;
24547;SDS011;12713;51.624;4.924;2023-04-01T06:04:22;42.47;;;21.42;;
24547;SDS011;12713;51.624;4.924;2023-04-01T06:06:48;35.42;;;18.63;;
24547;SDS011;12713;51.624;4.924;2023-04-01T06:09:15;44.38;;;21.40;;
24547;SDS011;12713;51.624;4.924;2023-04-01T06:22:02;44.42;;;20.77;;
24547;SDS011;12713;51.624;4.924;2023-04-01T06:27:52;38.67;;;20.85;;
24547;SDS011;12713;51.624;4.924;2023-04-01T06:35:29;47.40;;;21.27;;
24547;SDS011;12713;51.624;4.924;2023-04-01T06:38:03;41.53;;;20.33;;
24547;SDS011;12713;51.624;4.924;2023-04-01T06:40:38;42.13;;;21.92;;
24547;SDS011;12713;51.624;4.924;2023-04-01T06:53:23;49.80;;;22.73;;
24547;SDS011;12713;51.624;4.924;2023-04-01T06:56:02;52.47;;;24.83;;
24547;SDS011;12713;51.624;4.924;2023-04-01T06:58:34;51.90;;;24.42;;
24547;SDS011;12713;51.624;4.924;2023-04-01T07:01:06;48.55;;;23.25;;
24547;SDS011;12713;51.624;4.924;2023-04-01T07:03:36;55.47;;;24.75;;
24547;SDS011;12713;51.624;4.924;2023-04-01T07:06:05;44.17;;;21.33;;
24547;SDS011;12713;51.624;4.924;2023-04-01T07:08:33;43.65;;;23.88;;
24547;SDS011;12713;51.624;4.924;2023-04-01T07:11:08;51.28;;;24.10;;
24547;SDS011;12713;51.624;4.924;2023-04-01T07:24:17;46.38;;;23.92;;
24547;SDS011;12713;51.624;4.924;2023-04-01T07:26:46;44.92;;;23.60;;
24547;SDS011;12713;51.624;4.924;2023-04-01T07:29:13;44.35;;;23.73;;
24547;SDS011;12713;51.624;4.924;2023-04-01T07:31:45;41.70;;;25.45;;
24547;SDS011;12713;51.624;4.924;2023-04-01T07:37:03;40.85;;;23.27;;
24547;SDS011;12713;51.624;4.924;2023-04-01T07:39:45;46.40;;;24.60;;
24547;SDS011;12713;51.624;4.924;2023-04-01T07:55:17;43.53;;;23.33;;
24547;SDS011;12713;51.624;4.924;2023-04-01T07:57:49;38.95;;;22.52;;
24547;SDS011;12713;51.624;4.924;2023-04-01T08:00:20;36.13;;;21.65;;
24547;SDS011;12713;51.624;4.924;2023-04-01T08:05:46;35.95;;;19.27;;
24547;SDS011;12713;51.624;4.924;2023-04-01T08:15:53;32.17;;;19.98;;
24547;SDS011;12713;51.624;4.924;2023-04-01T08:21:00;34.13;;;19.02;;
24547;SDS011;12713;51.624;4.924;2023-04-01T08:23:31;34.53;;;19.92;;
24547;SDS011;12713;51.624;4.924;2023-04-01T08:26:13;32.42;;;19.92;;
24547;SDS011;12713;51.624;4.924;2023-04-01T08:28:43;33.50;;;19.77;;
24547;SDS011;12713;51.624;4.924;2023-04-01T08:31:53;31.55;;;19.02;;
24547;SDS011;12713;51.624;4.924;2023-04-01T08:33:59;29.80;;;17.35;;
24547;SDS011;12713;51.624;4.924;2023-04-01T08:36:41;33.25;;;18.92;;
24547;SDS011;12713;51.624;4.924;2023-04-01T08:39:20;33.28;;;19.60;;
24547;SDS011;12713;51.624;4.924;2023-04-01T08:46:59;28.67;;;18.05;;
24547;SDS011;12713;51.624;4.924;2023-04-01T08:54:54;26.00;;;16.00;;
24547;SDS011;12713;51.624;4.924;2023-04-01T08:57:44;21.35;;;13.82;;
24547;SDS011;12713;51.624;4.924;2023-04-01T09:00:15;21.95;;;14.48;;
24547;SDS011;12713;51.624;4.924;2023-04-01T09:03:02;18.90;;;13.55;;
24547;SDS011;12713;51.624;4.924;2023-04-01T09:05:44;20.48;;;13.85;;
24547;SDS011;12713;51.624;4.924;2023-04-01T09:10:56;18.35;;;12.88;;
24547;SDS011;12713;51.624;4.924;2023-04-01T09:26:24;17.77;;;12.68;;
24547;SDS011;12713;51.624;4.924;2023-04-01T09:39:36;17.75;;;12.55;;
24547;SDS011;12713;51.624;4.924;2023-04-01T09:44:48;16.42;;;11.90;;
24547;SDS011;12713;51.624;4.924;2023-04-01T09:55:23;18.05;;;13.55;;
24547;SDS011;12713;51.624;4.924;2023-04-01T10:06:17;26.10;;;17.05;;
24547;SDS011;12713;51.624;4.924;2023-04-01T10:14:25;28.65;;;17.65;;
24547;SDS011;12713;51.624;4.924;2023-04-01T10:17:10;24.00;;;17.25;;
24547;SDS011;12713;51.624;4.924;2023-04-01T10:27:51;24.25;;;17.55;;
24547;SDS011;12713;51.624;4.924;2023-04-01T11:07:44;18.48;;;13.93;;
24547;SDS011;12713;51.624;4.924;2023-04-01T11:15:41;25.75;;;15.10;;
24547;SDS011;12713;51.624;4.924;2023-04-01T11:31:19;17.70;;;12.32;;
24547;SDS011;12713;51.624;4.924;2023-04-01T11:33:51;17.77;;;13.35;;
24547;SDS011;12713;51.624;4.924;2023-04-01T11:46:27;21.15;;;14.55;;
24547;SDS011;12713;51.624;4.924;2023-04-01T11:49:05;21.70;;;14.18;;
24547;SDS011;12713;51.624;4.924;2023-04-01T12:04:45;21.75;;;14.10;;
24547;SDS011;12713;51.624;4.924;2023-04-01T12:12:14;17.17;;;12.57;;
24547;SDS011;12713;51.624;4.924;2023-04-01T12:24:45;15.68;;;11.45;;
24547;SDS011;12713;51.624;4.924;2023-04-01T12:29:58;15.80;;;12.17;;
24547;SDS011;12713;51.624;4.924;2023-04-01T12:48:23;21.23;;;14.63;;
24547;SDS011;12713;51.624;4.924;2023-04-01T12:56:07;19.00;;;12.63;;
24547;SDS011;12713;51.624;4.924;2023-04-01T13:06:20;18.20;;;13.67;;
24547;SDS011;12713;51.624;4.924;2023-04-01T13:14:17;18.48;;;14.90;;
24547;SDS011;12713;51.624;4.924;2023-04-01T13:25:06;22.17;;;15.02;;
24547;SDS011;12713;51.624;4.924;2023-04-01T13:32:44;24.40;;;14.77;;
24547;SDS011;12713;51.624;4.924;2023-04-01T13:37:46;18.25;;;13.88;;
24547;SDS011;12713;51.624;4.924;2023-04-01T13:42:56;21.88;;;14.55;;
24547;SDS011;12713;51.624;4.924;2023-04-01T13:45:24;23.02;;;15.85;;
24547;SDS011;12713;51.624;4.924;2023-04-01T13:55:49;21.25;;;15.43;;
24547;SDS011;12713;51.624;4.924;2023-04-01T13:58:31;21.05;;;15.48;;
24547;SDS011;12713;51.624;4.924;2023-04-01T14:01:15;22.40;;;15.40;;
24547;SDS011;12713;51.624;4.924;2023-04-01T14:09:04;17.00;;;13.93;;
24547;SDS011;12713;51.624;4.924;2023-04-01T14:11:36;20.20;;;15.15;;
24547;SDS011;12713;51.624;4.924;2023-04-01T14:16:47;21.13;;;15.10;;
24547;SDS011;12713;51.624;4.924;2023-04-01T14:19:26;21.35;;;16.13;;
24547;SDS011;12713;51.624;4.924;2023-04-01T14:22:17;19.80;;;13.60;;
24547;SDS011;12713;51.624;4.924;2023-04-01T14:24:46;19.90;;;14.93;;
24547;SDS011;12713;51.624;4.924;2023-04-01T14:37:45;23.30;;;15.43;;
24547;SDS011;12713;51.624;4.924;2023-04-01T14:53:38;21.15;;;15.40;;
24547;SDS011;12713;51.624;4.924;2023-04-01T14:56:06;19.63;;;13.50;;
24547;SDS011;12713;51.624;4.924;2023-04-01T14:58:41;18.75;;;12.98;;
24547;SDS011;12713;51.624;4.924;2023-04-01T15:11:48;17.73;;;12.57;;
24547;SDS011;12713;51.624;4.924;2023-04-01T15:19:39;18.92;;;12.73;;
24547;SDS011;12713;51.624;4.924;2023-04-01T15:22:24;21.70;;;13.55;;
24547;SDS011;12713;51.624;4.924;2023-04-01T15:43:12;22.58;;;15.40;;
24547;SDS011;12713;51.624;4.924;2023-04-01T16:04:25;24.10;;;14.80;;
24547;SDS011;12713;51.624;4.924;2023-04-01T16:07:07;25.67;;;15.20;;
24547;SDS011;12713;51.624;4.924;2023-04-01T16:14:57;24.50;;;14.10;;
24547;SDS011;12713;51.624;4.924;2023-04-01T16:20:47;21.40;;;13.70;;
24547;SDS011;12713;51.624;4.924;2023-04-01T16:23:24;28.48;;;13.98;;
24547;SDS011;12713;51.624;4.924;2023-04-01T16:26:15;22.08;;;12.25;;
24547;SDS011;12713;51.624;4.924;2023-04-01T16:34:01;20.05;;;13.65;;
24547;SDS011;12713;51.624;4.924;2023-04-01T16:41:48;23.98;;;12.68;;
24547;SDS011;12713;51.624;4.924;2023-04-01T16:44:19;18.00;;;12.13;;
24547;SDS011;12713;51.624;4.924;2023-04-01T16:46:46;16.83;;;10.55;;
24547;SDS011;12713;51.624;4.924;2023-04-01T16:49:25;13.80;;;9.82;;
24547;SDS011;12713;51.624;4.924;2023-04-01T16:51:54;16.92;;;9.95;;
24547;SDS011;12713;51.624;4.924;2023-04-01T16:54:31;17.95;;;10.85;;
24547;SDS011;12713;51.624;4.924;2023-04-01T17:04:30;20.13;;;11.65;;
24547;SDS011;12713;51.624;4.924;2023-04-01T17:17:10;19.75;;;11.45;;
24547;SDS011;12713;51.624;4.924;2023-04-01T17:30:06;16.50;;;10.57;;
24547;SDS011;12713;51.624;4.924;2023-04-01T17:45:42;16.65;;;10.95;;
24547;SDS011;12713;51.624;4.924;2023-04-01T17:53:41;14.50;;;9.60;;
24547;SDS011;12713;51.624;4.924;2023-04-01T17:58:59;14.05;;;9.85;;
24547;SDS011;12713;51.624;4.924;2023-04-01T18:09:20;12.88;;;9.35;;
24547;SDS011;12713;51.624;4.924;2023-04-01T18:19:28;16.55;;;8.70;;
24547;SDS011;12713;51.624;4.924;2023-04-01T18:22:43;15.15;;;8.98;;
24547;SDS011;12713;51.624;4.924;2023-04-01T18:24:44;10.93;;;7.95;;
24547;SDS011;12713;51.624;4.924;2023-04-01T18:27:15;8.57;;;7.35;;
24547;SDS011;12713;51.624;4.924;2023-04-01T18:40:36;8.02;;;6.68;;
24547;SDS011;12713;51.624;4.924;2023-04-01T18:45:34;9.27;;;8.30;;
24547;SDS011;12713;51.624;4.924;2023-04-01T18:53:24;13.20;;;8.77;;
24547;SDS011;12713;51.624;4.924;2023-04-01T18:55:58;11.35;;;9.18;;
24547;SDS011;12713;51.624;4.924;2023-04-01T18:58:30;10.93;;;8.75;;
24547;SDS011;12713;51.624;4.924;2023-04-01T19:04:00;9.93;;;8.05;;
24547;SDS011;12713;51.624;4.924;2023-04-01T19:06:33;10.20;;;7.43;;
24547;SDS011;12713;51.624;4.924;2023-04-01T19:20:07;15.20;;;10.70;;
24547;SDS011;12713;51.624;4.924;2023-04-01T19:27:52;14.48;;;12.10;;
24547;SDS011;12713;51.624;4.924;2023-04-01T19:35:55;12.40;;;10.15;;
24547;SDS011;12713;51.624;4.924;2023-04-01T19:46:24;14.87;;;12.17;;
24547;SDS011;12713;51.624;4.924;2023-04-01T19:48:58;14.18;;;12.63;;
24547;SDS011;12713;51.624;4.924;2023-04-01T19:54:13;19.02;;;14.85;;
24547;SDS011;12713;51.624;4.924;2023-04-01T20:04:49;16.85;;;13.18;;
24547;SDS011;12713;51.624;4.924;2023-04-01T20:07:51;19.00;;;13.55;;
24547;SDS011;12713;51.624;4.924;2023-04-01T20:10:11;14.95;;;12.15;;
24547;SDS011;12713;51.624;4.924;2023-04-01T20:12:45;17.90;;;14.32;;
24547;SDS011;12713;51.624;4.924;2023-04-01T20:17:41;17.70;;;14.07;;
24547;SDS011;12713;51.624;4.924;2023-04-01T20:28:28;19.67;;;15.37;;
24547;SDS011;12713;51.624;4.924;2023-04-01T20:30:42;17.50;;;14.65;;
24547;SDS011;12713;51.624;4.924;2023-04-01T20:35:49;21.67;;;16.13;;
24547;SDS011;12713;51.624;4.924;2023-04-01T20:41:05;21.88;;;15.60;;
24547;SDS011;12713;51.624;4.924;2023-04-01T20:43:39;19.08;;;15.30;;
24547;SDS011;12713;51.624;4.924;2023-04-01T20:51:04;17.88;;;14.05;;
24547;SDS011;12713;51.624;4.924;2023-04-01T20:53:43;19.50;;;14.55;;
24547;SDS011;12713;51.624;4.924;2023-04-01T21:03:45;16.25;;;13.43;;
24547;SDS011;12713;51.624;4.924;2023-04-01T21:11:33;16.80;;;12.90;;
24547;SDS011;12713;51.624;4.924;2023-04-01T21:30:47;16.15;;;12.40;;
24547;SDS011;12713;51.624;4.924;2023-04-01T21:38:48;19.95;;;15.07;;
24547;SDS011;12713;51.624;4.924;2023-04-01T21:41:29;14.05;;;11.15;;
24547;SDS011;12713;51.624;4.924;2023-04-01T22:03:03;20.90;;;15.48;;
24547;SDS011;12713;51.624;4.924;2023-04-01T22:05:38;23.77;;;15.93;;
24547;SDS011;12713;51.624;4.924;2023-04-01T22:10:54;22.63;;;17.23;;
24547;SDS011;12713;51.624;4.924;2023-04-01T22:13:31;20.25;;;14.27;;
24547;SDS011;12713;51.624;4.924;2023-04-01T22:16:33;22.95;;;17.65;;
24547;SDS011;12713;51.624;4.924;2023-04-01T22:18:53;23.65;;;17.63;;
24547;SDS011;12713;51.624;4.924;2023-04-01T22:21:29;25.98;;;18.05;;
24547;SDS011;12713;51.624;4.924;2023-04-01T22:32:23;26.27;;;19.00;;
24547;SDS011;12713;51.624;4.924;2023-04-01T22:34:45;26.83;;;19.58;;
24547;SDS011;12713;51.624;4.924;2023-04-01T22:45:24;20.60;;;14.50;;
24547;SDS011;12713;51.624;4.924;2023-04-01T22:48:07;16.75;;;13.00;;
24547;SDS011;12713;51.624;4.924;2023-04-01T22:53:08;15.57;;;11.65;;
24547;SDS011;12713;51.624;4.924;2023-04-01T22:55:38;19.00;;;13.05;;
24547;SDS011;12713;51.624;4.924;2023-04-01T22:58:10;13.70;;;10.65;;
24547;SDS011;12713;51.624;4.924;2023-04-01T23:00:39;15.45;;;12.23;;
24547;SDS011;12713;51.624;4.924;2023-04-01T23:05:36;17.90;;;13.05;;
24547;SDS011;12713;51.624;4.924;2023-04-01T23:10:51;16.52;;;11.07;;
24547;SDS011;12713;51.624;4.924;2023-04-01T23:13:22;15.57;;;12.18;;
24547;SDS011;12713;51.624;4.924;2023-04-01T23:15:50;14.43;;;11.40;;
24547;SDS011;12713;51.624;4.924;2023-04-01T23:18:36;21.10;;;12.73;;
24547;SDS011;12713;51.624;4.924;2023-04-01T23:22:10;19.23;;;12.98;;
24547;SDS011;12713;51.624;4.924;2023-04-01T23:26:53;16.40;;;13.60;;
24547;SDS011;12713;51.624;4.924;2023-04-01T23:29:21;19.20;;;12.13;;
24547;SDS011;12713;51.624;4.924;2023-04-01T23:32:01;15.55;;;12.07;;
24547;SDS011;12713;51.624;4.924;2023-04-01T23:34:28;14.77;;;11.75;;
24547;SDS011;12713;51.624;4.924;2023-04-01T23:36:57;16.17;;;12.35;;
24547;SDS011;12713;51.624;4.924;2023-04-01T23:41:53;16.60;;;11.57;;
24547;SDS011;12713;51.624;4.924;2023-04-01T23:44:20;14.73;;;11.75;;
24547;SDS011;12713;51.624;4.924;2023-04-01T23:46:55;16.85;;;12.40;;
24547;SDS011;12713;51.624;4.924;2023-04-01T23:49:24;15.35;;;11.73;;
24547;SDS011;12713;51.624;4.924;2023-04-01T23:57:21;21.23;;;14.85;;
